sensor_id;sensor_type;location;lat;lon;timestamp;P1;durP1;ratioP1;P2;durP2;ratioP2
40629;SDS011;26329;40.388;-3.710;2023-12-29T00:00:27;43.45;;;26.55;;
40629;SDS011;26329;40.388;-3.710;2023-12-29T00:10:28;55.47;;;27.38;;
40629;SDS011;26329;40.388;-3.710;2023-12-29T00:20:29;46.70;;;24.97;;
40629;SDS011;26329;40.388;-3.710;2023-12-29T00:30:31;39.70;;;26.33;;
40629;SDS011;26329;40.388;-3.710;2023-12-29T00:40:32;50.00;;;26.58;;
40629;SDS011;26329;40.388;-3.710;2023-12-29T00:50:33;47.58;;;25.95;;
40629;SDS011;26329;40.388;-3.710;2023-12-29T01:00:35;49.80;;;27.80;;
40629;SDS011;26329;40.388;-3.710;2023-12-29T01:10:36;45.10;;;27.65;;
40629;SDS011;26329;40.388;-3.710;2023-12-29T01:20:38;45.25;;;27.60;;
40629;SDS011;26329;40.388;-3.710;2023-12-29T01:30:42;45.78;;;27.58;;
40629;SDS011;26329;40.388;-3.710;2023-12-29T01:40:44;48.88;;;28.50;;
40629;SDS011;26329;40.388;-3.710;2023-12-29T01:50:45;45.38;;;26.50;;
40629;SDS011;26329;40.388;-3.710;2023-12-29T02:00:46;47.25;;;27.73;;
40629;SDS011;26329;40.388;-3.710;2023-12-29T02:10:48;41.60;;;23.92;;
40629;SDS011;26329;40.388;-3.710;2023-12-29T02:20:49;42.88;;;25.15;;
40629;SDS011;26329;40.388;-3.710;2023-12-29T02:31:07;37.17;;;24.75;;
40629;SDS011;26329;40.388;-3.710;2023-12-29T02:41:09;48.97;;;26.08;;
40629;SDS011;26329;40.388;-3.710;2023-12-29T02:51:10;45.30;;;26.58;;
40629;SDS011;26329;40.388;-3.710;2023-12-29T03:01:12;46.63;;;28.67;;
40629;SDS011;26329;40.388;-3.710;2023-12-29T03:11:13;42.17;;;27.33;;
40629;SDS011;26329;40.388;-3.710;2023-12-29T03:21:14;39.72;;;24.90;;
40629;SDS011;26329;40.388;-3.710;2023-12-29T03:31:15;49.70;;;25.13;;
40629;SDS011;26329;40.388;-3.710;2023-12-29T03:41:16;44.05;;;25.90;;
40629;SDS011;26329;40.388;-3.710;2023-12-29T03:51:18;40.67;;;26.20;;
40629;SDS011;26329;40.388;-3.710;2023-12-29T04:01:20;42.55;;;26.27;;
40629;SDS011;26329;40.388;-3.710;2023-12-29T04:11:21;42.63;;;25.43;;
40629;SDS011;26329;40.388;-3.710;2023-12-29T04:21:22;37.53;;;22.48;;
40629;SDS011;26329;40.388;-3.710;2023-12-29T04:31:23;38.85;;;22.35;;
40629;SDS011;26329;40.388;-3.710;2023-12-29T04:41:25;37.05;;;22.60;;
40629;SDS011;26329;40.388;-3.710;2023-12-29T04:51:26;38.15;;;23.33;;
40629;SDS011;26329;40.388;-3.710;2023-12-29T05:01:27;40.28;;;23.95;;
40629;SDS011;26329;40.388;-3.710;2023-12-29T05:11:28;32.80;;;22.45;;
40629;SDS011;26329;40.388;-3.710;2023-12-29T05:21:29;37.00;;;22.83;;
40629;SDS011;26329;40.388;-3.710;2023-12-29T05:31:31;40.10;;;22.60;;
40629;SDS011;26329;40.388;-3.710;2023-12-29T05:41:32;38.92;;;23.98;;
40629;SDS011;26329;40.388;-3.710;2023-12-29T05:51:33;35.95;;;22.60;;
40629;SDS011;26329;40.388;-3.710;2023-12-29T06:01:34;36.35;;;21.10;;
40629;SDS011;26329;40.388;-3.710;2023-12-29T06:11:35;32.25;;;21.38;;
40629;SDS011;26329;40.388;-3.710;2023-12-29T06:21:43;32.58;;;21.13;;
40629;SDS011;26329;40.388;-3.710;2023-12-29T06:31:44;32.93;;;19.60;;
40629;SDS011;26329;40.388;-3.710;2023-12-29T06:41:45;32.10;;;19.60;;
40629;SDS011;26329;40.388;-3.710;2023-12-29T06:51:46;31.13;;;19.88;;
40629;SDS011;26329;40.388;-3.710;2023-12-29T07:01:47;32.53;;;18.90;;
40629;SDS011;26329;40.388;-3.710;2023-12-29T07:11:49;34.58;;;20.98;;
40629;SDS011;26329;40.388;-3.710;2023-12-29T07:21:50;33.53;;;22.27;;
40629;SDS011;26329;40.388;-3.710;2023-12-29T07:31:51;34.45;;;20.23;;
40629;SDS011;26329;40.388;-3.710;2023-12-29T07:41:52;36.33;;;20.45;;
40629;SDS011;26329;40.388;-3.710;2023-12-29T07:51:54;38.97;;;20.63;;
40629;SDS011;26329;40.388;-3.710;2023-12-29T08:01:55;34.65;;;20.50;;
40629;SDS011;26329;40.388;-3.710;2023-12-29T08:11:57;34.38;;;19.90;;
40629;SDS011;26329;40.388;-3.710;2023-12-29T08:21:58;30.23;;;19.60;;
40629;SDS011;26329;40.388;-3.710;2023-12-29T08:32:00;29.55;;;19.27;;
40629;SDS011;26329;40.388;-3.710;2023-12-29T08:42:02;30.83;;;19.75;;
40629;SDS011;26329;40.388;-3.710;2023-12-29T08:52:03;33.08;;;18.52;;
40629;SDS011;26329;40.388;-3.710;2023-12-29T09:02:05;31.83;;;18.63;;
40629;SDS011;26329;40.388;-3.710;2023-12-29T09:12:06;28.40;;;17.88;;
40629;SDS011;26329;40.388;-3.710;2023-12-29T09:22:07;36.42;;;19.13;;
40629;SDS011;26329;40.388;-3.710;2023-12-29T09:32:08;35.90;;;18.73;;
40629;SDS011;26329;40.388;-3.710;2023-12-29T09:42:11;31.73;;;18.60;;
40629;SDS011;26329;40.388;-3.710;2023-12-29T09:52:14;31.90;;;18.08;;
40629;SDS011;26329;40.388;-3.710;2023-12-29T10:02:17;34.42;;;19.55;;
40629;SDS011;26329;40.388;-3.710;2023-12-29T10:12:19;35.25;;;20.45;;
40629;SDS011;26329;40.388;-3.710;2023-12-29T10:22:30;32.70;;;19.20;;
40629;SDS011;26329;40.388;-3.710;2023-12-29T10:32:35;34.53;;;19.00;;
40629;SDS011;26329;40.388;-3.710;2023-12-29T10:42:37;35.58;;;21.98;;
40629;SDS011;26329;40.388;-3.710;2023-12-29T10:52:52;49.67;;;26.02;;
40629;SDS011;26329;40.388;-3.710;2023-12-29T11:02:53;39.50;;;22.25;;
40629;SDS011;26329;40.388;-3.710;2023-12-29T11:12:54;43.97;;;23.13;;
40629;SDS011;26329;40.388;-3.710;2023-12-29T11:22:56;43.03;;;23.08;;
40629;SDS011;26329;40.388;-3.710;2023-12-29T11:32:58;68.43;;;35.58;;
40629;SDS011;26329;40.388;-3.710;2023-12-29T11:43:01;44.08;;;23.42;;
40629;SDS011;26329;40.388;-3.710;2023-12-29T11:53:04;56.72;;;21.40;;
40629;SDS011;26329;40.388;-3.710;2023-12-29T12:13:47;40.85;;;21.55;;
40629;SDS011;26329;40.388;-3.710;2023-12-29T12:23:48;44.75;;;21.27;;
40629;SDS011;26329;40.388;-3.710;2023-12-29T12:33:56;45.70;;;22.30;;
40629;SDS011;26329;40.388;-3.710;2023-12-29T12:44:14;37.55;;;19.60;;
40629;SDS011;26329;40.388;-3.710;2023-12-29T12:54:17;32.42;;;16.50;;
40629;SDS011;26329;40.388;-3.710;2023-12-29T13:04:21;30.70;;;13.38;;
40629;SDS011;26329;40.388;-3.710;2023-12-29T13:14:23;22.10;;;13.60;;
40629;SDS011;26329;40.388;-3.710;2023-12-29T13:24:26;32.25;;;14.82;;
40629;SDS011;26329;40.388;-3.710;2023-12-29T13:34:29;30.73;;;14.90;;
40629;SDS011;26329;40.388;-3.710;2023-12-29T13:44:32;33.72;;;14.82;;
40629;SDS011;26329;40.388;-3.710;2023-12-29T13:54:41;29.92;;;14.07;;
40629;SDS011;26329;40.388;-3.710;2023-12-29T14:04:45;24.65;;;13.73;;
40629;SDS011;26329;40.388;-3.710;2023-12-29T14:14:46;30.02;;;14.00;;
40629;SDS011;26329;40.388;-3.710;2023-12-29T14:25:00;24.88;;;13.45;;
40629;SDS011;26329;40.388;-3.710;2023-12-29T14:35:03;32.92;;;12.60;;
40629;SDS011;26329;40.388;-3.710;2023-12-29T14:45:10;26.55;;;13.77;;
40629;SDS011;26329;40.388;-3.710;2023-12-29T14:55:11;28.40;;;14.00;;
40629;SDS011;26329;40.388;-3.710;2023-12-29T15:05:13;29.10;;;14.00;;
40629;SDS011;26329;40.388;-3.710;2023-12-29T15:15:15;23.17;;;13.00;;
40629;SDS011;26329;40.388;-3.710;2023-12-29T15:25:16;30.05;;;13.38;;
40629;SDS011;26329;40.388;-3.710;2023-12-29T15:35:17;32.67;;;14.80;;
40629;SDS011;26329;40.388;-3.710;2023-12-29T15:45:19;29.13;;;14.48;;
40629;SDS011;26329;40.388;-3.710;2023-12-29T15:55:20;29.40;;;15.13;;
40629;SDS011;26329;40.388;-3.710;2023-12-29T16:05:21;38.60;;;19.65;;
40629;SDS011;26329;40.388;-3.710;2023-12-29T16:15:23;32.85;;;20.27;;
40629;SDS011;26329;40.388;-3.710;2023-12-29T16:25:24;43.28;;;22.15;;
40629;SDS011;26329;40.388;-3.710;2023-12-29T16:35:25;36.17;;;22.42;;
40629;SDS011;26329;40.388;-3.710;2023-12-29T16:45:26;38.70;;;22.27;;
40629;SDS011;26329;40.388;-3.710;2023-12-29T16:55:28;42.47;;;21.92;;
40629;SDS011;26329;40.388;-3.710;2023-12-29T17:05:29;38.80;;;21.67;;
40629;SDS011;26329;40.388;-3.710;2023-12-29T17:15:30;39.38;;;22.55;;
40629;SDS011;26329;40.388;-3.710;2023-12-29T17:25:31;36.35;;;22.15;;
40629;SDS011;26329;40.388;-3.710;2023-12-29T17:35:32;30.50;;;20.65;;
40629;SDS011;26329;40.388;-3.710;2023-12-29T17:45:34;36.15;;;20.73;;
40629;SDS011;26329;40.388;-3.710;2023-12-29T17:55:35;44.50;;;21.63;;
40629;SDS011;26329;40.388;-3.710;2023-12-29T18:05:36;42.38;;;25.42;;
40629;SDS011;26329;40.388;-3.710;2023-12-29T18:15:37;42.42;;;23.02;;
40629;SDS011;26329;40.388;-3.710;2023-12-29T18:25:39;35.55;;;22.05;;
40629;SDS011;26329;40.388;-3.710;2023-12-29T18:35:40;39.85;;;22.77;;
40629;SDS011;26329;40.388;-3.710;2023-12-29T18:45:41;41.28;;;22.42;;
40629;SDS011;26329;40.388;-3.710;2023-12-29T18:55:43;35.42;;;22.52;;
40629;SDS011;26329;40.388;-3.710;2023-12-29T19:05:44;37.05;;;22.73;;
40629;SDS011;26329;40.388;-3.710;2023-12-29T19:15:46;49.20;;;26.73;;
40629;SDS011;26329;40.388;-3.710;2023-12-29T19:25:47;35.97;;;23.08;;
40629;SDS011;26329;40.388;-3.710;2023-12-29T19:35:49;37.95;;;20.50;;
40629;SDS011;26329;40.388;-3.710;2023-12-29T19:45:50;42.55;;;22.27;;
40629;SDS011;26329;40.388;-3.710;2023-12-29T19:55:51;39.40;;;21.17;;
40629;SDS011;26329;40.388;-3.710;2023-12-29T20:05:53;37.95;;;23.15;;
40629;SDS011;26329;40.388;-3.710;2023-12-29T20:15:54;44.45;;;23.98;;
40629;SDS011;26329;40.388;-3.710;2023-12-29T20:25:55;50.55;;;26.70;;
40629;SDS011;26329;40.388;-3.710;2023-12-29T20:35:56;39.15;;;23.17;;
40629;SDS011;26329;40.388;-3.710;2023-12-29T20:45:57;47.38;;;26.92;;
40629;SDS011;26329;40.388;-3.710;2023-12-29T20:55:58;40.72;;;24.63;;
40629;SDS011;26329;40.388;-3.710;2023-12-29T21:06:00;51.25;;;27.02;;
40629;SDS011;26329;40.388;-3.710;2023-12-29T21:16:01;43.67;;;24.63;;
40629;SDS011;26329;40.388;-3.710;2023-12-29T21:26:03;38.67;;;22.25;;
40629;SDS011;26329;40.388;-3.710;2023-12-29T21:36:04;34.70;;;20.05;;
40629;SDS011;26329;40.388;-3.710;2023-12-29T21:46:06;33.38;;;18.83;;
40629;SDS011;26329;40.388;-3.710;2023-12-29T21:56:07;36.60;;;20.15;;
40629;SDS011;26329;40.388;-3.710;2023-12-29T22:06:08;31.80;;;16.45;;
40629;SDS011;26329;40.388;-3.710;2023-12-29T22:16:13;29.67;;;16.38;;
40629;SDS011;26329;40.388;-3.710;2023-12-29T22:36:16;29.85;;;18.73;;
40629;SDS011;26329;40.388;-3.710;2023-12-29T22:46:18;31.27;;;19.17;;
40629;SDS011;26329;40.388;-3.710;2023-12-29T22:56:19;29.00;;;19.48;;
40629;SDS011;26329;40.388;-3.710;2023-12-29T23:06:21;23.58;;;15.65;;
40629;SDS011;26329;40.388;-3.710;2023-12-29T23:16:23;29.88;;;15.27;;
40629;SDS011;26329;40.388;-3.710;2023-12-29T23:26:25;25.83;;;15.82;;
40629;SDS011;26329;40.388;-3.710;2023-12-29T23:36:27;28.85;;;17.08;;
40629;SDS011;26329;40.388;-3.710;2023-12-29T23:46:28;27.30;;;16.98;;
40629;SDS011;26329;40.388;-3.710;2023-12-29T23:56:29;30.55;;;17.38;;
